createdAt,value
2023-03-12T00:01:16.103Z,11.90
2023-03-12T00:03:42.692Z,8.70
2023-03-12T00:06:10.998Z,7.97
2023-03-12T00:08:38.058Z,5.10
2023-03-12T00:11:08.526Z,12.27
2023-03-12T00:13:35.690Z,30.97
2023-03-12T00:16:06.742Z,19.60
2023-03-12T00:18:33.346Z,4.90
2023-03-12T00:21:00.289Z,4.33
2023-03-12T00:23:27.173Z,4.60
2023-03-12T00:25:53.640Z,4.40
2023-03-12T00:28:20.163Z,4.67
2023-03-12T00:30:46.799Z,4.33
2023-03-12T00:33:13.628Z,4.90
2023-03-12T00:35:40.405Z,4.30
2023-03-12T00:38:06.941Z,4.47
2023-03-12T00:40:33.553Z,3.87
2023-03-12T00:43:00.654Z,4.97
2023-03-12T00:45:27.325Z,4.97
2023-03-12T00:47:54.203Z,4.93
2023-03-12T00:50:20.930Z,5.07
2023-03-12T00:52:47.516Z,4.50
2023-03-12T00:55:14.081Z,5.03
2023-03-12T00:57:40.669Z,4.80
2023-03-12T01:00:10.781Z,4.63
2023-03-12T01:02:37.972Z,4.70
2023-03-12T01:05:05.587Z,4.13
2023-03-12T01:07:32.379Z,5.30
2023-03-12T01:09:59.386Z,3.80
2023-03-12T01:12:25.909Z,4.00
2023-03-12T01:14:52.558Z,4.07
2023-03-12T01:17:19.320Z,3.83
2023-03-12T01:19:45.795Z,4.97
2023-03-12T01:22:12.327Z,4.70
2023-03-12T01:24:39.521Z,4.83
2023-03-12T01:27:06.073Z,4.83
2023-03-12T01:29:32.813Z,4.33
2023-03-12T01:31:59.290Z,4.50
2023-03-12T01:34:25.802Z,4.77
2023-03-12T01:36:52.414Z,4.63
2023-03-12T01:39:19.083Z,5.53
2023-03-12T01:41:46.014Z,4.67
2023-03-12T01:44:15.718Z,5.40
2023-03-12T01:46:43.312Z,4.80
2023-03-12T01:49:19.372Z,5.60
2023-03-12T01:51:49.106Z,3.27
2023-03-12T01:54:18.485Z,3.83
2023-03-12T01:56:45.830Z,6.63
2023-03-12T01:59:15.711Z,5.70
2023-03-12T02:01:43.086Z,6.93
2023-03-12T02:04:11.029Z,52.63
2023-03-12T02:06:43.954Z,6.20
2023-03-12T02:09:12.611Z,4.60
2023-03-12T02:11:39.267Z,4.77
2023-03-12T02:14:06.018Z,5.10
2023-03-12T02:16:32.679Z,4.03
2023-03-12T02:19:01.563Z,3.40
2023-03-12T02:21:29.421Z,4.50
2023-03-12T02:24:00.956Z,4.70
2023-03-12T02:26:29.812Z,5.33
2023-03-12T02:28:59.237Z,5.97
2023-03-12T02:31:28.527Z,4.40
2023-03-12T02:33:56.049Z,7.30
2023-03-12T02:36:22.565Z,5.03
2023-03-12T02:38:50.568Z,6.40
2023-03-12T02:41:22.073Z,5.60
2023-03-12T02:44:00.530Z,4.80
2023-03-12T02:46:27.304Z,5.50
2023-03-12T02:48:55.264Z,5.22
2023-03-12T02:51:22.024Z,5.82
2023-03-12T02:53:54.852Z,6.47
2023-03-12T02:56:22.830Z,5.95
2023-03-12T02:58:49.465Z,5.50
2023-03-12T03:01:16.654Z,5.35
2023-03-12T03:03:43.751Z,4.65
2023-03-12T03:06:10.510Z,4.22
2023-03-12T03:08:37.234Z,4.37
2023-03-12T03:11:03.862Z,4.95
2023-03-12T03:13:30.693Z,6.70
2023-03-12T03:15:59.595Z,7.45
2023-03-12T03:18:26.292Z,5.30
2023-03-12T03:21:00.750Z,5.45
2023-03-12T03:23:27.740Z,5.55
2023-03-12T03:25:56.100Z,5.75
2023-03-12T03:28:23.684Z,5.32
2023-03-12T03:30:52.710Z,5.25
2023-03-12T03:33:19.422Z,4.47
2023-03-12T03:35:46.076Z,5.17
2023-03-12T03:38:12.713Z,5.37
2023-03-12T03:40:39.660Z,4.90
2023-03-12T03:43:06.202Z,4.47
2023-03-12T03:45:32.921Z,3.60
2023-03-12T03:47:59.602Z,3.93
2023-03-12T03:50:26.318Z,3.37
2023-03-12T03:52:52.944Z,4.00
2023-03-12T03:55:19.821Z,3.63
2023-03-12T03:57:46.419Z,4.87
2023-03-12T04:00:13.446Z,3.17
2023-03-12T04:02:44.677Z,4.63
2023-03-12T04:05:12.998Z,3.33
2023-03-12T04:07:39.855Z,3.60
2023-03-12T04:10:06.849Z,4.13
2023-03-12T04:12:33.840Z,3.70
2023-03-12T04:15:00.535Z,4.03
2023-03-12T04:17:27.185Z,3.63
2023-03-12T04:19:53.932Z,3.43
2023-03-12T04:22:20.402Z,4.30
2023-03-12T04:24:46.990Z,3.20
2023-03-12T04:27:13.588Z,2.80
2023-03-12T04:29:42.492Z,2.70
2023-03-12T04:32:09.667Z,4.20
2023-03-12T04:34:36.727Z,3.30
2023-03-12T04:37:03.494Z,4.20
2023-03-12T04:39:30.506Z,3.30
2023-03-12T04:41:57.475Z,3.07
2023-03-12T04:44:25.465Z,3.25
2023-03-12T04:46:52.589Z,3.10
2023-03-12T04:49:22.559Z,2.47
2023-03-12T04:51:49.123Z,2.50
2023-03-12T04:54:15.667Z,1.40
2023-03-12T04:56:42.876Z,1.27
2023-03-12T04:59:09.428Z,2.70
2023-03-12T05:01:36.749Z,3.30
2023-03-12T05:04:07.898Z,2.60
2023-03-12T05:06:34.605Z,2.27
2023-03-12T05:09:01.744Z,3.33
2023-03-12T05:11:28.937Z,2.80
2023-03-12T05:13:55.513Z,3.77
2023-03-12T05:16:23.533Z,3.10
2023-03-12T05:18:50.146Z,3.60
2023-03-12T05:21:18.489Z,3.70
2023-03-12T05:23:46.514Z,3.95
2023-03-12T05:26:21.870Z,4.18
2023-03-12T05:28:49.004Z,4.07
2023-03-12T05:31:16.974Z,2.77
2023-03-12T05:33:44.722Z,2.70
2023-03-12T05:36:11.705Z,2.93
2023-03-12T05:38:38.908Z,3.23
2023-03-12T05:41:06.513Z,3.50
2023-03-12T05:43:36.185Z,3.40
2023-03-12T05:46:04.021Z,3.90
2023-03-12T05:48:31.708Z,2.90
2023-03-12T05:50:58.223Z,2.33
2023-03-12T05:53:25.001Z,3.43
2023-03-12T05:55:52.812Z,2.90
2023-03-12T05:58:19.582Z,3.42
2023-03-12T06:00:46.136Z,3.17
2023-03-12T06:03:13.744Z,2.25
2023-03-12T06:05:41.413Z,3.00
2023-03-12T06:08:07.878Z,2.60
2023-03-12T06:10:34.612Z,3.40
2023-03-12T06:13:01.457Z,2.93
2023-03-12T06:15:28.187Z,2.30
2023-03-12T06:17:54.764Z,3.37
2023-03-12T06:20:22.999Z,3.70
2023-03-12T06:22:50.048Z,3.53
2023-03-12T06:25:16.640Z,3.80
2023-03-12T06:27:43.255Z,3.03
2023-03-12T06:30:10.057Z,2.93
2023-03-12T06:32:36.721Z,2.67
2023-03-12T06:35:04.736Z,3.80
2023-03-12T06:37:31.383Z,3.23
2023-03-12T06:39:57.967Z,4.63
2023-03-12T06:42:26.468Z,3.73
2023-03-12T06:44:53.791Z,3.50
2023-03-12T06:47:20.573Z,3.23
2023-03-12T06:49:47.128Z,6.67
2023-03-12T06:52:13.649Z,3.50
2023-03-12T06:54:40.216Z,3.80
2023-03-12T06:57:06.728Z,4.27
2023-03-12T06:59:33.214Z,4.33
2023-03-12T07:01:59.733Z,4.80
2023-03-12T07:04:26.548Z,5.13
2023-03-12T07:06:53.228Z,4.90
2023-03-12T07:09:20.344Z,5.47
2023-03-12T07:11:46.931Z,4.00
2023-03-12T07:14:13.545Z,5.00
2023-03-12T07:16:40.033Z,5.90
2023-03-12T07:19:06.519Z,5.03
2023-03-12T07:21:33.106Z,4.90
2023-03-12T07:24:00.925Z,4.57
2023-03-12T07:26:27.845Z,4.90
2023-03-12T07:28:54.413Z,4.27
2023-03-12T07:31:20.981Z,5.83
2023-03-12T07:33:47.730Z,5.13
2023-03-12T07:36:14.419Z,5.37
2023-03-12T07:38:41.057Z,5.63
2023-03-12T07:41:07.588Z,8.40
2023-03-12T07:43:34.166Z,7.70
2023-03-12T07:46:00.898Z,6.73
2023-03-12T07:48:27.464Z,7.73
2023-03-12T07:50:53.978Z,7.43
2023-03-12T07:53:21.255Z,16.30
2023-03-12T07:55:48.300Z,14.63
2023-03-12T07:58:15.945Z,13.53
2023-03-12T08:00:43.235Z,12.33
2023-03-12T08:03:10.196Z,20.03
2023-03-12T08:05:36.990Z,20.83
2023-03-12T08:08:03.788Z,7.17
2023-03-12T08:10:30.693Z,6.87
2023-03-12T08:12:57.424Z,9.77
2023-03-12T08:15:24.200Z,11.83
2023-03-12T08:17:51.379Z,7.43
2023-03-12T08:20:18.135Z,7.67
2023-03-12T08:22:44.860Z,5.80
2023-03-12T08:25:11.904Z,10.07
2023-03-12T08:27:38.785Z,8.53
2023-03-12T08:30:06.520Z,11.13
2023-03-12T08:32:33.489Z,9.33
2023-03-12T08:35:00.208Z,4.87
2023-03-12T08:37:26.816Z,7.80
2023-03-12T08:39:53.589Z,8.40
2023-03-12T08:42:20.271Z,8.80
2023-03-12T08:44:46.949Z,8.40
2023-03-12T08:47:15.148Z,8.07
2023-03-12T08:49:41.841Z,3.87
2023-03-12T08:52:08.777Z,8.73
2023-03-12T08:54:35.430Z,9.80
2023-03-12T08:57:02.118Z,8.23
2023-03-12T08:59:28.755Z,9.00
2023-03-12T09:01:55.525Z,10.57
2023-03-12T09:04:22.444Z,8.23
2023-03-12T09:06:49.173Z,8.80
2023-03-12T09:09:15.982Z,7.57
2023-03-12T09:11:42.810Z,7.90
2023-03-12T09:16:56.839Z,7.33
2023-03-12T09:19:23.915Z,7.63
2023-03-12T09:21:50.534Z,6.77
2023-03-12T09:24:17.132Z,7.37
2023-03-12T09:26:43.786Z,8.17
2023-03-12T09:29:10.536Z,8.47
2023-03-12T09:31:37.340Z,8.90
2023-03-12T09:34:04.892Z,9.10
2023-03-12T09:36:31.992Z,10.43
2023-03-12T09:38:58.668Z,10.27
2023-03-12T09:41:27.565Z,8.33
2023-03-12T09:43:58.733Z,10.57
2023-03-12T09:46:29.158Z,10.40
2023-03-12T09:48:57.433Z,8.37
2023-03-12T09:51:27.350Z,10.13
2023-03-12T09:53:55.859Z,12.67
2023-03-12T09:56:23.643Z,11.30
2023-03-12T09:58:51.663Z,9.20
2023-03-12T10:01:24.103Z,11.07
2023-03-12T10:03:50.698Z,10.90
2023-03-12T10:06:26.738Z,11.90
2023-03-12T10:08:56.432Z,9.90
2023-03-12T10:11:23.241Z,12.27
2023-03-12T10:13:56.778Z,11.90
2023-03-12T10:16:42.023Z,13.37
2023-03-12T10:19:24.128Z,10.63
2023-03-12T10:21:59.146Z,8.53
2023-03-12T10:24:33.950Z,9.73
2023-03-12T10:27:01.960Z,13.37
2023-03-12T10:29:30.162Z,15.50
2023-03-12T10:31:59.364Z,14.00
2023-03-12T10:34:39.157Z,14.03
2023-03-12T10:37:18.724Z,14.13
2023-03-12T10:39:45.583Z,15.27
2023-03-12T10:42:14.260Z,12.30
2023-03-12T10:44:40.784Z,14.77
2023-03-12T10:47:23.053Z,17.83
2023-03-12T10:49:51.126Z,15.50
2023-03-12T10:52:19.101Z,16.20
2023-03-12T10:54:47.020Z,19.27
2023-03-12T10:57:15.243Z,17.90
2023-03-12T10:59:43.657Z,16.00
2023-03-12T11:02:31.109Z,17.10
2023-03-12T11:04:58.511Z,19.03
2023-03-12T11:07:26.731Z,17.17
2023-03-12T11:10:08.558Z,17.50
2023-03-12T11:12:36.830Z,15.97
2023-03-12T11:15:20.705Z,15.20
2023-03-12T11:17:47.573Z,20.90
2023-03-12T11:20:26.353Z,12.60
2023-03-12T11:22:52.934Z,17.97
2023-03-12T11:25:24.604Z,15.57
2023-03-12T11:27:53.943Z,16.30
2023-03-12T11:30:26.522Z,12.40
2023-03-12T11:32:53.290Z,12.23
2023-03-12T11:35:26.252Z,14.20
2023-03-12T11:37:55.833Z,12.10
2023-03-12T11:40:40.717Z,13.30
2023-03-12T11:43:07.322Z,11.83
2023-03-12T11:45:37.087Z,14.63
2023-03-12T11:48:09.748Z,11.50
2023-03-12T11:50:47.044Z,12.00
2023-03-12T11:53:21.821Z,9.47
2023-03-12T11:56:01.237Z,9.97
2023-03-12T11:58:31.418Z,9.77
2023-03-12T12:01:20.296Z,7.40
2023-03-12T12:03:49.850Z,8.00
2023-03-12T12:06:35.226Z,8.40
2023-03-12T12:09:22.576Z,7.83
2023-03-12T12:12:05.654Z,5.93
2023-03-12T12:14:47.884Z,6.93
2023-03-12T12:17:17.422Z,8.43
2023-03-12T12:19:59.326Z,7.07
2023-03-12T12:22:45.390Z,9.60
2023-03-12T12:25:13.117Z,6.63
2023-03-12T12:28:00.226Z,9.30
2023-03-12T12:30:26.721Z,6.27
2023-03-12T12:33:08.589Z,6.30
2023-03-12T12:35:36.657Z,7.33
2023-03-12T12:38:15.527Z,9.33
2023-03-12T12:40:48.946Z,6.73
2023-03-12T12:43:15.580Z,5.90
2023-03-12T12:45:44.168Z,7.73
2023-03-12T12:48:18.284Z,5.27
2023-03-12T12:50:47.400Z,7.73
2023-03-12T12:53:16.662Z,6.77
2023-03-12T12:55:50.397Z,6.73
2023-03-12T12:58:17.127Z,7.93
2023-03-12T13:00:46.438Z,7.30
2023-03-12T13:03:18.669Z,7.23
2023-03-12T13:05:54.374Z,6.93
2023-03-12T13:08:35.464Z,7.43
2023-03-12T13:11:25.590Z,6.17
2023-03-12T13:14:12.099Z,8.53
2023-03-12T13:16:40.307Z,8.53
2023-03-12T13:19:16.533Z,6.57
2023-03-12T13:21:45.951Z,7.10
2023-03-12T13:24:29.669Z,7.40
2023-03-12T13:27:02.268Z,6.90
2023-03-12T13:29:28.822Z,4.00
2023-03-12T13:31:56.580Z,6.43
2023-03-12T13:34:27.535Z,5.13
2023-03-12T13:37:01.825Z,8.53
2023-03-12T13:39:30.440Z,7.90
2023-03-12T13:41:58.164Z,7.40
2023-03-12T13:44:30.062Z,5.43
2023-03-12T13:47:00.129Z,7.73
2023-03-12T13:55:14.023Z,6.47
2023-03-12T13:57:43.349Z,8.13
2023-03-12T14:00:27.498Z,4.90
2023-03-12T14:02:59.350Z,6.07
2023-03-12T14:05:27.325Z,5.70
2023-03-12T14:08:11.215Z,6.47
2023-03-12T14:10:55.023Z,6.60
2023-03-12T14:13:40.708Z,8.27
2023-03-12T14:16:08.788Z,7.43
2023-03-12T14:18:36.965Z,9.33
2023-03-12T14:21:08.254Z,12.27
2023-03-12T14:23:36.959Z,12.47
2023-03-12T14:26:04.438Z,6.53
2023-03-12T14:28:33.300Z,6.53
2023-03-12T14:31:05.302Z,7.07
2023-03-12T14:33:34.153Z,5.87
2023-03-12T14:36:10.231Z,5.60
2023-03-12T14:38:39.266Z,8.90
2023-03-12T14:41:22.838Z,5.97
2023-03-12T14:43:51.669Z,6.13
2023-03-12T14:46:19.907Z,6.70
2023-03-12T14:48:50.819Z,6.00
2023-03-12T14:51:23.508Z,5.40
2023-03-12T14:53:50.963Z,5.73
2023-03-12T14:56:25.826Z,5.63
2023-03-12T14:58:52.339Z,7.70
2023-03-12T15:01:21.309Z,5.80
2023-03-12T15:03:50.162Z,10.33
2023-03-12T15:06:24.796Z,6.87
2023-03-12T15:08:51.358Z,7.80
2023-03-12T15:11:23.058Z,4.73
2023-03-12T15:13:50.150Z,5.70
2023-03-12T15:16:17.307Z,7.17
2023-03-12T15:18:44.228Z,7.63
2023-03-12T15:21:10.952Z,6.13
2023-03-12T15:23:37.848Z,7.37
2023-03-12T15:26:19.638Z,5.03
2023-03-12T15:29:00.330Z,5.73
2023-03-12T15:31:27.586Z,7.47
2023-03-12T15:34:02.108Z,6.63
2023-03-12T15:36:29.678Z,6.53
2023-03-12T15:39:02.413Z,7.87
2023-03-12T15:41:54.390Z,9.17
2023-03-12T15:44:22.641Z,7.43
2023-03-12T15:46:56.922Z,7.23
2023-03-12T15:49:28.264Z,8.97
2023-03-12T15:51:59.219Z,5.57
2023-03-12T15:54:27.442Z,6.70
2023-03-12T15:56:54.301Z,7.77
2023-03-12T15:59:26.144Z,9.53
2023-03-12T16:01:54.194Z,7.23
2023-03-12T16:04:21.207Z,6.80
2023-03-12T16:06:49.152Z,7.10
2023-03-12T16:09:20.456Z,5.97
2023-03-12T16:11:47.889Z,5.73
2023-03-12T16:14:21.332Z,5.30
2023-03-12T16:16:47.990Z,7.70
2023-03-12T16:19:15.983Z,6.83
2023-03-12T16:21:43.285Z,9.57
2023-03-12T16:24:10.768Z,9.90
2023-03-12T16:26:42.432Z,5.50
2023-03-12T16:29:10.591Z,6.23
2023-03-12T16:31:37.206Z,6.63
2023-03-12T16:34:03.880Z,9.50
2023-03-12T16:36:30.537Z,6.90
2023-03-12T16:38:57.281Z,7.93
2023-03-12T16:41:24.607Z,7.27
2023-03-12T16:43:53.749Z,6.07
2023-03-12T16:46:21.113Z,7.57
2023-03-12T16:48:52.795Z,8.57
2023-03-12T16:51:22.096Z,8.33
2023-03-12T16:53:58.485Z,6.77
2023-03-12T16:56:32.221Z,6.60
2023-03-12T16:59:00.068Z,8.00
2023-03-12T17:01:29.071Z,9.40
2023-03-12T17:03:55.911Z,11.37
2023-03-12T17:06:24.068Z,6.20
2023-03-12T17:08:50.998Z,5.03
2023-03-12T17:11:22.570Z,7.27
2023-03-12T17:13:51.486Z,7.67
2023-03-12T17:16:18.134Z,6.30
2023-03-12T17:18:44.715Z,8.90
2023-03-12T17:21:13.115Z,7.23
2023-03-12T17:23:39.841Z,8.00
2023-03-12T17:26:06.630Z,6.27
2023-03-12T17:28:33.177Z,7.43
2023-03-12T17:30:59.744Z,7.03
2023-03-12T17:33:26.985Z,6.73
2023-03-12T17:36:11.684Z,7.20
2023-03-12T17:38:39.578Z,8.17
2023-03-12T17:41:23.368Z,8.70
2023-03-12T17:43:52.542Z,6.20
2023-03-12T17:46:19.338Z,7.67
2023-03-12T17:48:45.973Z,7.93
2023-03-12T17:51:12.643Z,8.53
2023-03-12T17:53:42.528Z,8.50
2023-03-12T17:56:12.483Z,7.70
2023-03-12T17:58:39.237Z,6.57
2023-03-12T18:01:05.896Z,5.80
2023-03-12T18:03:32.623Z,7.00
2023-03-12T18:05:59.254Z,19.80
2023-03-12T18:08:25.937Z,19.07
2023-03-12T18:10:52.530Z,24.83
2023-03-12T18:13:19.387Z,18.20
2023-03-12T18:15:53.098Z,8.30
2023-03-12T18:18:19.940Z,5.93
2023-03-12T18:20:47.634Z,6.73
2023-03-12T18:23:14.520Z,7.43
2023-03-12T18:25:41.168Z,7.40
2023-03-12T18:28:07.822Z,8.60
2023-03-12T18:30:34.526Z,6.87
2023-03-12T18:33:01.205Z,7.30
2023-03-12T18:35:30.266Z,8.73
2023-03-12T18:37:57.142Z,7.13
2023-03-12T18:40:24.172Z,5.90
2023-03-12T18:42:50.931Z,7.23
2023-03-12T18:45:18.736Z,8.30
2023-03-12T18:47:45.460Z,8.13
2023-03-12T18:50:12.389Z,7.20
2023-03-12T18:52:39.075Z,6.50
2023-03-12T18:55:05.838Z,7.60
2023-03-12T18:57:32.492Z,6.40
2023-03-12T18:59:59.688Z,9.00
2023-03-12T19:02:26.534Z,7.00
2023-03-12T19:04:55.912Z,7.30
2023-03-12T19:07:22.857Z,5.57
2023-03-12T19:09:49.713Z,5.60
2023-03-12T19:12:16.300Z,6.23
2023-03-12T19:14:42.965Z,6.77
2023-03-12T19:17:09.713Z,7.33
2023-03-12T19:19:37.402Z,7.80
2023-03-12T19:22:04.728Z,8.00
2023-03-12T19:24:31.451Z,7.27
2023-03-12T19:26:57.994Z,5.97
2023-03-12T19:29:24.694Z,7.87
2023-03-12T19:31:51.329Z,5.47
2023-03-12T19:34:18.099Z,7.03
2023-03-12T19:36:44.844Z,3.57
2023-03-12T19:39:21.087Z,1.90
2023-03-12T19:41:48.618Z,4.80
2023-03-12T19:44:15.221Z,6.07
2023-03-12T19:46:43.166Z,5.63
2023-03-12T19:49:09.985Z,6.43
2023-03-12T19:51:36.636Z,6.13
2023-03-12T19:54:03.333Z,8.57
2023-03-12T19:56:29.892Z,4.47
2023-03-12T19:58:56.489Z,4.43
2023-03-12T20:01:23.108Z,3.20
2023-03-12T20:03:49.741Z,6.97
2023-03-12T20:06:16.475Z,5.37
2023-03-12T20:08:44.586Z,7.10
2023-03-12T20:11:11.214Z,5.40
2023-03-12T20:13:40.839Z,5.00
2023-03-12T20:16:07.753Z,4.83
2023-03-12T20:18:34.616Z,5.03
2023-03-12T20:21:01.123Z,3.23
2023-03-12T20:23:27.826Z,5.27
2023-03-12T20:25:54.518Z,4.87
2023-03-12T20:28:21.067Z,3.80
2023-03-12T20:30:48.662Z,3.40
2023-03-12T20:33:15.685Z,1.43
2023-03-12T20:35:42.329Z,5.13
2023-03-12T20:38:09.313Z,2.57
2023-03-12T20:40:36.032Z,5.27
2023-03-12T20:43:04.797Z,6.70
2023-03-12T20:45:32.743Z,7.33
2023-03-12T20:47:59.718Z,3.97
2023-03-12T20:50:26.735Z,4.30
2023-03-12T20:52:53.624Z,6.40
2023-03-12T20:55:20.612Z,6.00
2023-03-12T20:57:47.185Z,4.37
2023-03-12T21:00:13.876Z,3.73
2023-03-12T21:02:40.525Z,3.77
2023-03-12T21:05:07.641Z,2.97
2023-03-12T21:07:34.336Z,4.80
2023-03-12T21:10:00.933Z,4.77
2023-03-12T21:12:27.511Z,6.50
2023-03-12T21:14:54.088Z,6.67
2023-03-12T21:17:20.858Z,7.77
2023-03-12T21:19:47.571Z,6.63
2023-03-12T21:22:14.721Z,5.10
2023-03-12T21:24:41.427Z,6.53
2023-03-12T21:27:11.557Z,3.40
2023-03-12T21:29:38.107Z,6.07
2023-03-12T21:32:04.928Z,4.83
2023-03-12T21:34:32.000Z,3.10
2023-03-12T21:36:58.660Z,4.77
2023-03-12T21:39:27.362Z,4.80
2023-03-12T21:41:53.953Z,4.20
2023-03-12T21:44:20.561Z,4.60
2023-03-12T21:46:47.150Z,4.87
2023-03-12T21:49:14.198Z,3.10
2023-03-12T21:51:40.745Z,6.07
2023-03-12T21:54:07.892Z,5.73
2023-03-12T21:56:34.502Z,6.80
2023-03-12T21:59:01.218Z,5.50
2023-03-12T22:01:28.015Z,4.30
2023-03-12T22:03:54.634Z,2.60
2023-03-12T22:06:21.410Z,2.40
2023-03-12T22:08:52.316Z,2.90
2023-03-12T22:11:19.070Z,4.73
2023-03-12T22:13:45.608Z,2.53
2023-03-12T22:16:12.889Z,4.30
2023-03-12T22:18:41.044Z,3.53
2023-03-12T22:21:08.064Z,2.90
2023-03-12T22:23:36.481Z,3.00
2023-03-12T22:26:04.717Z,3.73
2023-03-12T22:28:31.485Z,4.70
2023-03-12T22:31:02.033Z,4.70
2023-03-12T22:33:29.217Z,4.83
2023-03-12T22:35:56.584Z,3.00
2023-03-12T22:38:24.911Z,3.30
2023-03-12T22:40:54.223Z,5.47
2023-03-12T22:43:25.312Z,5.00
2023-03-12T22:45:54.993Z,6.03
2023-03-12T22:48:21.606Z,2.30
2023-03-12T22:50:54.372Z,5.40
2023-03-12T22:53:21.186Z,3.83
2023-03-12T22:55:55.653Z,5.77
2023-03-12T22:58:22.289Z,4.60
2023-03-12T23:00:49.201Z,2.90
2023-03-12T23:03:15.870Z,4.73
2023-03-12T23:05:42.668Z,4.57
2023-03-12T23:08:10.484Z,3.20
2023-03-12T23:10:37.098Z,4.10
2023-03-12T23:13:04.614Z,3.13
2023-03-12T23:15:40.501Z,3.07
2023-03-12T23:18:08.095Z,2.73
2023-03-12T23:20:34.941Z,3.30
2023-03-12T23:23:01.550Z,3.30
2023-03-12T23:25:28.084Z,2.30
2023-03-12T23:27:54.742Z,4.70
2023-03-12T23:30:21.302Z,3.33
2023-03-12T23:32:47.850Z,3.60
2023-03-12T23:35:16.061Z,2.37
2023-03-12T23:37:42.648Z,2.63
2023-03-12T23:40:11.061Z,3.70
2023-03-12T23:42:37.573Z,2.10
2023-03-12T23:45:04.349Z,3.23
2023-03-12T23:47:30.960Z,3.87
2023-03-12T23:49:57.725Z,2.37
2023-03-12T23:52:26.134Z,3.77
2023-03-12T23:54:52.629Z,3.57
2023-03-12T23:57:19.139Z,3.00
2023-03-12T23:59:45.678Z,2.00
